Time;durP1;ratioP1;P1;durP2;ratioP2;P2;SDS_P1;SDS_P2;PMS_P1;PMS_P2;Temp;Humidity;BMP_temperature;BMP_pressure;BME280_temperature;BME280_humidity;BME280_pressure;Samples;Min_cycle;Max_cycle;Signal;HPM_P1;HPM_P2
2023/01/03 00:01:35;;;;;;;1.95;0.80;;;;;;;;;;5027017;28;20361;-78
2023/01/03 00:04:02;;;;;;;1.50;0.68;;;;;;;;;;5029324;28;20054;-79
2023/01/03 00:06:42;;;;;;;2.17;0.82;;;;;;;;;;5025909;28;20502;-78
2023/01/03 00:09:09;;;;;;;2.97;1.00;;;;;;;;;;5010534;28;20050;-77
2023/01/03 00:14:23;;;;;;;1.88;0.80;;;;;;;;;;5014183;28;20056;-77
2023/01/03 00:16:51;;;;;;;1.52;1.00;;;;;;;;;;5026267;28;20172;-78
2023/01/03 00:19:18;;;;;;;1.98;0.80;;;;;;;;;;5026133;28;20071;-75
2023/01/03 00:21:44;;;;;;;1.70;1.17;;;;;;;;;;5026834;28;20053;-78
2023/01/03 00:24:11;;;;;;;1.92;0.90;;;;;;;;;;5026282;28;20049;-78
2023/01/03 00:26:39;;;;;;;2.78;1.15;;;;;;;;;;5012779;28;20091;-77
2023/01/03 00:29:06;;;;;;;2.38;1.30;;;;;;;;;;5028255;28;20088;-78
2023/01/03 00:31:32;;;;;;;1.65;1.13;;;;;;;;;;5026308;28;20045;-78
2023/01/03 00:33:59;;;;;;;5.82;1.30;;;;;;;;;;5009798;28;20394;-78
2023/01/03 00:36:25;;;;;;;1.88;1.08;;;;;;;;;;5027698;28;20053;-78
2023/01/03 00:38:51;;;;;;;2.50;1.15;;;;;;;;;;5012374;28;20065;-78
2023/01/03 00:41:19;;;;;;;1.52;1.05;;;;;;;;;;5028069;28;20057;-77
2023/01/03 00:43:46;;;;;;;3.53;0.90;;;;;;;;;;5023978;28;20208;-79
2023/01/03 00:46:13;;;;;;;2.33;1.05;;;;;;;;;;5014786;28;20045;-78
2023/01/03 00:48:40;;;;;;;1.50;1.00;;;;;;;;;;5030240;28;20049;-78
2023/01/03 00:51:07;;;;;;;1.85;1.35;;;;;;;;;;5025723;28;20049;-79
2023/01/03 00:53:35;;;;;;;1.33;0.90;;;;;;;;;;5028101;28;20538;-79
2023/01/03 00:56:05;;;;;;;1.58;1.10;;;;;;;;;;5025218;28;20429;-78
2023/01/03 00:58:32;;;;;;;2.53;1.02;;;;;;;;;;5029085;28;20045;-78
2023/01/03 01:01:07;;;;;;;1.63;0.95;;;;;;;;;;5024981;28;20057;-78
2023/01/03 01:03:35;;;;;;;1.42;1.10;;;;;;;;;;5015959;28;20358;-77
2023/01/03 01:06:15;;;;;;;1.83;1.10;;;;;;;;;;5020736;28;20341;-77
2023/01/03 01:08:42;;;;;;;2.25;1.25;;;;;;;;;;5024119;28;20053;-78
2023/01/03 01:11:08;;;;;;;2.75;1.27;;;;;;;;;;5025479;28;20526;-78
2023/01/03 01:13:35;;;;;;;2.25;1.00;;;;;;;;;;5025104;28;20049;-77
2023/01/03 01:16:03;;;;;;;1.70;1.10;;;;;;;;;;5016860;28;20073;-77
2023/01/03 01:18:29;;;;;;;1.45;1.00;;;;;;;;;;4999532;28;20439;-78
2023/01/03 01:20:56;;;;;;;3.53;1.10;;;;;;;;;;5017093;28;20129;-78
2023/01/03 01:23:22;;;;;;;2.47;1.23;;;;;;;;;;5010068;28;20132;-78
2023/01/03 01:25:49;;;;;;;1.67;1.23;;;;;;;;;;5019939;28;20049;-79
2023/01/03 01:28:15;;;;;;;2.55;1.40;;;;;;;;;;5026455;28;20053;-78
2023/01/03 01:30:42;;;;;;;2.30;1.10;;;;;;;;;;5021991;28;20053;-79
2023/01/03 01:33:08;;;;;;;3.00;1.33;;;;;;;;;;5023956;28;20053;-77
2023/01/03 01:35:34;;;;;;;2.50;1.35;;;;;;;;;;5015743;28;20063;-77
2023/01/03 01:38:01;;;;;;;1.70;1.20;;;;;;;;;;5023066;28;20065;-78
2023/01/03 01:40:29;;;;;;;1.65;1.25;;;;;;;;;;5022811;28;20072;-78
2023/01/03 01:45:43;;;;;;;1.90;1.45;;;;;;;;;;5024185;28;20391;-78
2023/01/03 01:48:11;;;;;;;3.78;1.60;;;;;;;;;;5010650;28;20057;-78
2023/01/03 01:50:42;;;;;;;1.98;1.27;;;;;;;;;;5018237;28;20059;-78
2023/01/03 01:53:23;;;;;;;3.30;1.38;;;;;;;;;;5014621;28;20085;-77
2023/01/03 01:55:52;;;;;;;1.85;1.23;;;;;;;;;;5014697;28;20133;-78
2023/01/03 01:58:19;;;;;;;2.88;1.50;;;;;;;;;;5025293;28;20049;-78
2023/01/03 02:00:46;;;;;;;4.63;1.42;;;;;;;;;;5024139;28;20081;-78
2023/01/03 02:03:12;;;;;;;1.65;1.35;;;;;;;;;;5024881;28;20053;-78
2023/01/03 02:05:41;;;;;;;6.20;1.75;;;;;;;;;;5020725;28;20046;-77
2023/01/03 02:08:07;;;;;;;2.42;1.30;;;;;;;;;;5006012;28;20585;-77
2023/01/03 02:10:53;;;;;;;1.15;1.00;;;;;;;;;;5023766;28;20054;-76
2023/01/03 02:13:19;;;;;;;5.22;1.40;;;;;;;;;;5009548;28;20446;-78
2023/01/03 02:15:49;;;;;;;2.40;1.30;;;;;;;;;;5027569;28;20086;-78
2023/01/03 02:18:15;;;;;;;1.40;0.85;;;;;;;;;;5030846;28;20045;-78
2023/01/03 02:21:00;;;;;;;2.08;0.82;;;;;;;;;;5025992;28;20045;-77
2023/01/03 02:23:36;;;;;;;1.50;0.90;;;;;;;;;;5028190;28;20365;-75
2023/01/03 02:26:02;;;;;;;;;;;;;;;;;;5022087;28;20046;-77
2023/01/03 02:28:41;;;;;;;2.25;0.90;;;;;;;;;;5030778;28;19925;-77
2023/01/03 02:31:28;;;;;;;2.90;1.10;;;;;;;;;;5020493;28;20057;-78
2023/01/03 02:34:07;;;;;;;3.03;0.95;;;;;;;;;;4974508;28;20130;-77
2023/01/03 02:36:40;;;;;;;2.50;0.98;;;;;;;;;;5022004;28;20123;-78
2023/01/03 02:39:21;;;;;;;1.50;0.90;;;;;;;;;;5028657;28;20057;-77
2023/01/03 02:44:56;;;;;;;2.22;1.25;;;;;;;;;;5028644;28;20149;-78
2023/01/03 02:47:24;;;;;;;1.60;1.08;;;;;;;;;;5028321;28;20422;-78
2023/01/03 02:49:54;;;;;;;2.22;1.40;;;;;;;;;;5034791;28;20127;-76
2023/01/03 02:52:26;;;;;;;2.13;1.00;;;;;;;;;;5017490;28;20088;-77
2023/01/03 02:55:05;;;;;;;2.97;1.20;;;;;;;;;;5025444;28;20046;-78
2023/01/03 02:57:39;;;;;;;3.42;0.90;;;;;;;;;;5030627;28;20433;-78
2023/01/03 03:00:11;;;;;;;2.90;1.30;;;;;;;;;;5024648;28;20067;-79
2023/01/03 03:02:38;;;;;;;1.50;1.15;;;;;;;;;;5028166;28;20059;-79
2023/01/03 03:05:07;;;;;;;1.70;1.13;;;;;;;;;;5025255;28;20065;-79
2023/01/03 03:07:35;;;;;;;3.20;1.58;;;;;;;;;;5031940;28;20107;-77
2023/01/03 03:15:36;;;;;;;2.47;1.08;;;;;;;;;;5028616;28;20127;-78
2023/01/03 03:18:05;;;;;;;3.03;1.20;;;;;;;;;;5026629;28;20612;-79
2023/01/03 03:26:13;;;;;;;1.67;1.20;;;;;;;;;;5035512;28;20145;-79
2023/01/03 03:28:42;;;;;;;;;;;;;;;;;;5031527;28;20486;-77
2023/01/03 03:31:11;;;;;;;1.77;1.02;;;;;;;;;;5026287;28;19928;-78
2023/01/03 03:33:58;;;;;;;1.35;0.90;;;;;;;;;;5026694;28;20053;-78
2023/01/03 03:36:27;;;;;;;1.25;1.00;;;;;;;;;;5028585;28;20052;-78
2023/01/03 03:38:54;;;;;;;3.17;1.02;;;;;;;;;;5027795;28;20180;-78
2023/01/03 03:47:01;;;;;;;2.42;0.98;;;;;;;;;;5018821;28;20431;-78
2023/01/03 03:49:36;;;;;;;1.60;1.10;;;;;;;;;;5024462;28;20052;-78
2023/01/03 03:52:04;;;;;;;3.10;1.17;;;;;;;;;;5019107;28;20052;-79
2023/01/03 03:54:33;;;;;;;3.75;1.23;;;;;;;;;;5028715;28;20054;-78
2023/01/03 03:57:09;;;;;;;2.72;1.00;;;;;;;;;;5025600;28;20053;-78
2023/01/03 03:59:36;;;;;;;2.05;1.05;;;;;;;;;;5030440;28;20077;-79
2023/01/03 04:02:05;;;;;;;3.53;1.10;;;;;;;;;;5028360;28;20464;-77
2023/01/03 04:04:34;;;;;;;1.90;1.23;;;;;;;;;;5020517;28;20136;-78
2023/01/03 04:07:01;;;;;;;4.15;1.40;;;;;;;;;;5021427;28;20053;-79
2023/01/03 04:09:27;;;;;;;4.40;1.30;;;;;;;;;;5022372;28;20063;-79
2023/01/03 04:11:54;;;;;;;4.88;1.60;;;;;;;;;;5017010;28;20466;-79
2023/01/03 04:14:20;;;;;;;3.78;1.50;;;;;;;;;;5015058;28;20053;-79
2023/01/03 04:16:46;;;;;;;4.05;1.70;;;;;;;;;;5026289;28;20505;-78
2023/01/03 04:19:13;;;;;;;3.03;1.75;;;;;;;;;;5029180;28;20326;-78
2023/01/03 04:21:39;;;;;;;3.38;1.67;;;;;;;;;;5027055;28;20049;-76
2023/01/03 04:24:06;;;;;;;4.13;1.60;;;;;;;;;;5024560;28;20107;-79
2023/01/03 04:26:33;;;;;;;6.18;1.80;;;;;;;;;;5020821;28;20502;-79
2023/01/03 04:28:59;;;;;;;3.33;1.50;;;;;;;;;;5016928;28;20417;-78
2023/01/03 04:31:25;;;;;;;3.30;1.55;;;;;;;;;;5015864;28;20073;-78
2023/01/03 04:33:52;;;;;;;2.22;1.42;;;;;;;;;;5011125;28;20064;-79
2023/01/03 04:36:19;;;;;;;3.90;1.70;;;;;;;;;;5026963;28;20134;-79
2023/01/03 04:38:46;;;;;;;2.90;1.70;;;;;;;;;;5028393;28;20049;-79
2023/01/03 04:41:12;;;;;;;3.25;1.52;;;;;;;;;;5025309;28;20053;-77
2023/01/03 04:46:24;;;;;;;5.03;1.20;;;;;;;;;;5026024;28;20482;-78
2023/01/03 04:48:50;;;;;;;3.00;1.38;;;;;;;;;;5027207;28;20284;-79
2023/01/03 04:51:17;;;;;;;2.55;1.85;;;;;;;;;;5027150;28;20514;-78
2023/01/03 04:53:43;;;;;;;3.65;1.48;;;;;;;;;;5027056;28;20075;-77
2023/01/03 04:56:10;;;;;;;3.47;1.50;;;;;;;;;;5016184;28;20049;-78
2023/01/03 04:58:36;;;;;;;2.90;1.83;;;;;;;;;;5029594;28;20382;-79
2023/01/03 05:01:03;;;;;;;3.33;1.58;;;;;;;;;;5023512;28;20053;-77
2023/01/03 05:03:30;;;;;;;5.65;1.70;;;;;;;;;;5024684;28;20072;-77
2023/01/03 05:06:00;;;;;;;1.70;1.40;;;;;;;;;;5021839;28;20135;-78
2023/01/03 05:08:26;;;;;;;2.15;1.30;;;;;;;;;;5023548;28;20053;-79
2023/01/03 05:10:53;;;;;;;3.78;1.38;;;;;;;;;;5041156;28;20100;-79
2023/01/03 05:13:20;;;;;;;5.95;2.00;;;;;;;;;;5005539;28;20127;-77
2023/01/03 05:15:46;;;;;;;5.15;1.55;;;;;;;;;;5037343;28;20037;-78
2023/01/03 05:18:13;;;;;;;2.42;1.48;;;;;;;;;;5024548;28;20064;-75
2023/01/03 05:26:11;;;;;;;4.07;1.50;;;;;;;;;;5018974;28;20053;-78
2023/01/03 05:28:38;;;;;;;4.38;1.35;;;;;;;;;;5020991;28;20414;-77
2023/01/03 05:31:04;;;;;;;3.70;1.50;;;;;;;;;;5027715;28;20049;-77
2023/01/03 05:33:31;;;;;;;2.75;1.15;;;;;;;;;;5033100;28;20049;-78
2023/01/03 05:35:57;;;;;;;1.98;1.17;;;;;;;;;;5023709;28;20442;-78
2023/01/03 05:38:24;;;;;;;2.22;1.10;;;;;;;;;;5022130;28;20049;-77
2023/01/03 05:40:50;;;;;;;2.40;1.23;;;;;;;;;;5024313;28;20091;-77
2023/01/03 05:43:16;;;;;;;4.35;1.60;;;;;;;;;;5021883;28;20534;-78
2023/01/03 05:45:47;;;;;;;3.35;1.33;;;;;;;;;;5018391;28;20053;-78
2023/01/03 05:48:13;;;;;;;5.05;1.75;;;;;;;;;;5022869;28;20060;-77
2023/01/03 05:50:40;;;;;;;5.10;1.58;;;;;;;;;;5015062;28;20085;-77
2023/01/03 05:53:06;;;;;;;2.60;1.50;;;;;;;;;;5019955;28;20045;-78
2023/01/03 05:55:35;;;;;;;2.55;1.50;;;;;;;;;;5023595;28;20050;-77
2023/01/03 05:58:01;;;;;;;1.50;1.17;;;;;;;;;;5006038;28;20041;-78
2023/01/03 06:00:28;;;;;;;3.63;1.33;;;;;;;;;;5008201;28;20045;-77
2023/01/03 06:02:54;;;;;;;2.58;1.25;;;;;;;;;;5019038;28;20130;-78
2023/01/03 06:05:21;;;;;;;3.88;1.27;;;;;;;;;;5020513;28;20053;-77
2023/01/03 06:07:47;;;;;;;1.75;1.20;;;;;;;;;;5023287;28;20052;-77
2023/01/03 06:10:14;;;;;;;2.55;0.90;;;;;;;;;;5033281;28;20056;-79
2023/01/03 06:12:40;;;;;;;2.65;1.30;;;;;;;;;;5033608;28;20049;-80
2023/01/03 06:15:07;;;;;;;3.20;1.08;;;;;;;;;;5024581;28;20050;-79
2023/01/03 06:20:18;;;;;;;2.00;1.40;;;;;;;;;;5024399;28;20061;-79
2023/01/03 06:22:45;;;;;;;4.47;1.42;;;;;;;;;;5025561;28;20473;-79
2023/01/03 06:25:11;;;;;;;2.13;1.30;;;;;;;;;;5026602;28;20053;-79
2023/01/03 06:27:38;;;;;;;2.72;1.70;;;;;;;;;;5034919;28;20049;-79
2023/01/03 06:30:04;;;;;;;2.70;1.58;;;;;;;;;;5024966;28;20060;-79
2023/01/03 06:32:31;;;;;;;2.65;1.45;;;;;;;;;;5024558;28;20466;-80
2023/01/03 06:34:57;;;;;;;2.20;1.60;;;;;;;;;;5024661;28;20545;-80
2023/01/03 06:37:23;;;;;;;3.15;1.80;;;;;;;;;;5032120;28;20061;-80
2023/01/03 06:39:50;;;;;;;2.47;1.58;;;;;;;;;;5012393;28;20068;-77
2023/01/03 06:53:19;;;;;;;3.58;1.48;;;;;;;;;;5025892;28;20049;-79
2023/01/03 06:55:45;;;;;;;3.85;2.00;;;;;;;;;;5028900;28;20089;-80
2023/01/03 06:58:21;;;;;;;2.45;1.50;;;;;;;;;;5025790;28;20100;-80
2023/01/03 07:00:48;;;;;;;4.38;2.00;;;;;;;;;;5025599;28;20053;-78
2023/01/03 07:03:14;;;;;;;3.00;1.83;;;;;;;;;;5026749;28;20057;-80
2023/01/03 07:05:40;;;;;;;4.28;2.33;;;;;;;;;;5011661;28;20061;-78
2023/01/03 07:08:07;;;;;;;4.35;1.88;;;;;;;;;;5019313;28;20374;-78
2023/01/03 07:10:33;;;;;;;7.55;2.40;;;;;;;;;;5035213;28;20141;-79
2023/01/03 07:15:45;;;;;;;4.53;2.43;;;;;;;;;;5027057;28;20402;-79
2023/01/03 07:18:12;;;;;;;3.67;2.20;;;;;;;;;;5029423;28;20081;-80
2023/01/03 07:20:42;;;;;;;3.60;2.03;;;;;;;;;;5030494;28;20437;-81
2023/01/03 07:23:09;;;;;;;6.07;2.50;;;;;;;;;;5019723;28;20554;-80
2023/01/03 07:25:39;;;;;;;7.43;1.95;;;;;;;;;;5028562;28;20060;-76
2023/01/03 07:28:07;;;;;;;4.45;2.30;;;;;;;;;;5025437;28;20129;-78
2023/01/03 07:30:37;;;;;;;6.38;2.25;;;;;;;;;;5011282;28;20370;-78
2023/01/03 07:33:03;;;;;;;5.65;2.28;;;;;;;;;;5019319;28;20061;-80
2023/01/03 07:35:31;;;;;;;5.63;2.35;;;;;;;;;;5019855;28;20656;-79
2023/01/03 07:37:57;;;;;;;5.07;2.33;;;;;;;;;;5042876;28;20055;-80
2023/01/03 07:40:24;;;;;;;4.38;1.90;;;;;;;;;;5029144;28;20540;-77
2023/01/03 07:45:38;;;;;;;6.05;2.47;;;;;;;;;;5027375;28;20061;-80
2023/01/03 07:48:04;;;;;;;5.80;1.92;;;;;;;;;;5025701;28;20056;-80
2023/01/03 07:50:30;;;;;;;4.10;1.95;;;;;;;;;;5028242;28;20096;-78
2023/01/03 07:52:57;;;;;;;3.42;1.80;;;;;;;;;;5020693;28;20430;-79
2023/01/03 07:55:23;;;;;;;3.25;1.60;;;;;;;;;;5010204;28;20053;-80
2023/01/03 07:57:49;;;;;;;3.70;1.90;;;;;;;;;;5016191;28;20053;-79
2023/01/03 08:00:16;;;;;;;3.28;1.80;;;;;;;;;;5030027;28;20366;-80
2023/01/03 08:02:42;;;;;;;3.83;2.08;;;;;;;;;;5022669;28;20050;-78
2023/01/03 08:05:09;;;;;;;3.00;1.80;;;;;;;;;;5023629;28;20187;-79
2023/01/03 08:07:35;;;;;;;4.40;2.28;;;;;;;;;;5011922;28;20049;-77
2023/01/03 08:15:32;;;;;;;3.35;2.00;;;;;;;;;;5029184;28;20326;-79
2023/01/03 08:17:58;;;;;;;4.28;2.30;;;;;;;;;;5028534;28;20052;-79
2023/01/03 08:20:25;;;;;;;3.55;1.92;;;;;;;;;;5029187;28;20058;-78
2023/01/03 08:22:51;;;;;;;3.83;1.88;;;;;;;;;;5023239;28;20083;-79
2023/01/03 08:25:18;;;;;;;2.85;1.88;;;;;;;;;;5009770;28;20509;-77
2023/01/03 08:27:44;;;;;;;2.97;1.63;;;;;;;;;;5011771;28;20060;-77
2023/01/03 08:30:15;;;;;;;3.47;1.45;;;;;;;;;;5019420;28;20426;-79
2023/01/03 08:32:42;;;;;;;3.15;1.30;;;;;;;;;;5011267;28;20049;-80
2023/01/03 08:35:10;;;;;;;3.58;1.52;;;;;;;;;;5028502;28;20053;-79
2023/01/03 08:37:36;;;;;;;4.88;1.70;;;;;;;;;;5028235;28;20057;-79
2023/01/03 08:40:03;;;;;;;2.58;1.52;;;;;;;;;;5027978;28;20581;-79
2023/01/03 08:42:31;;;;;;;3.40;1.50;;;;;;;;;;5025614;28;20049;-77
2023/01/03 08:45:02;;;;;;;5.57;1.42;;;;;;;;;;5027519;28;20057;-79
2023/01/03 08:47:29;;;;;;;2.30;1.40;;;;;;;;;;5020107;28;20053;-78
2023/01/03 08:49:56;;;;;;;2.20;1.38;;;;;;;;;;5026067;28;20123;-79
2023/01/03 08:52:23;;;;;;;3.92;1.73;;;;;;;;;;5018218;28;20050;-78
2023/01/03 08:54:52;;;;;;;4.55;1.33;;;;;;;;;;5028296;28;20101;-78
2023/01/03 08:57:19;;;;;;;2.05;1.40;;;;;;;;;;5026765;28;20497;-79
2023/01/03 08:59:45;;;;;;;4.53;1.40;;;;;;;;;;5026831;28;20067;-78
2023/01/03 09:02:12;;;;;;;4.53;1.52;;;;;;;;;;5005370;28;20145;-79
2023/01/03 09:04:38;;;;;;;3.60;1.52;;;;;;;;;;5024940;28;20068;-78
2023/01/03 09:07:05;;;;;;;4.13;1.50;;;;;;;;;;5018267;28;20058;-78
2023/01/03 09:09:31;;;;;;;3.47;1.60;;;;;;;;;;5013793;28;20141;-77
2023/01/03 09:11:58;;;;;;;6.05;1.85;;;;;;;;;;5014687;28;20077;-78
2023/01/03 09:14:24;;;;;;;3.45;1.52;;;;;;;;;;5025666;28;20045;-78
2023/01/03 09:16:51;;;;;;;2.22;1.27;;;;;;;;;;5024933;28;20056;-81
2023/01/03 09:19:17;;;;;;;2.53;1.38;;;;;;;;;;5017067;28;20050;-77
2023/01/03 09:21:44;;;;;;;1.88;1.20;;;;;;;;;;5029061;28;20053;-79
2023/01/03 09:24:10;;;;;;;2.03;1.27;;;;;;;;;;5014741;28;20334;-78
2023/01/03 09:26:36;;;;;;;2.70;1.20;;;;;;;;;;5007036;28;20221;-79
2023/01/03 09:29:03;;;;;;;3.35;1.27;;;;;;;;;;5018343;28;20089;-79
2023/01/03 09:31:33;;;;;;;1.30;0.85;;;;;;;;;;5006040;28;20248;-79
2023/01/03 09:34:02;;;;;;;3.75;1.17;;;;;;;;;;5016441;28;20510;-79
2023/01/03 09:36:28;;;;;;;1.52;1.00;;;;;;;;;;5025148;28;20433;-79
2023/01/03 09:38:55;;;;;;;2.08;1.17;;;;;;;;;;5026334;28;20137;-79
2023/01/03 09:41:22;;;;;;;2.88;1.02;;;;;;;;;;5019607;28;20057;-80
2023/01/03 09:43:54;;;;;;;6.22;1.23;;;;;;;;;;5015941;28;20057;-79
2023/01/03 09:46:23;;;;;;;3.30;1.25;;;;;;;;;;5024708;28;20057;-79
2023/01/03 09:48:50;;;;;;;3.97;1.20;;;;;;;;;;5028343;28;20109;-79
2023/01/03 10:05:57;;;;;;;2.45;1.23;;;;;;;;;;5005179;28;20060;-79
2023/01/03 10:08:27;;;;;;;2.33;1.45;;;;;;;;;;5016058;28;20045;-78
2023/01/03 10:11:16;;;;;;;3.97;1.45;;;;;;;;;;5028068;28;20045;-79
2023/01/03 10:14:01;;;;;;;1.73;1.00;;;;;;;;;;5025343;28;20046;-79
2023/01/03 10:16:40;;;;;;;2.53;0.98;;;;;;;;;;5022742;28;20046;-78
2023/01/03 10:19:15;;;;;;;1.77;0.80;;;;;;;;;;5027769;28;20123;-79
2023/01/03 10:21:45;;;;;;;1.45;0.82;;;;;;;;;;5024306;28;20057;-79
2023/01/03 10:24:22;;;;;;;1.50;1.10;;;;;;;;;;5016925;28;20076;-79
2023/01/03 10:26:50;;;;;;;1.75;1.15;;;;;;;;;;5030544;28;20075;-79
2023/01/03 10:29:17;;;;;;;2.08;1.00;;;;;;;;;;5020197;28;20073;-79
2023/01/03 10:31:59;;;;;;;2.55;0.95;;;;;;;;;;5013923;28;20099;-79
2023/01/03 10:34:25;;;;;;;1.98;0.93;;;;;;;;;;5027790;28;20045;-77
2023/01/03 10:36:52;;;;;;;2.97;1.08;;;;;;;;;;5028089;28;20059;-78
2023/01/03 10:39:27;;;;;;;2.75;1.20;;;;;;;;;;5030753;28;20064;-78
2023/01/03 10:41:56;;;;;;;1.88;1.02;;;;;;;;;;5024757;28;20109;-78
2023/01/03 10:44:27;;;;;;;4.35;1.50;;;;;;;;;;5010354;28;20057;-77
2023/01/03 10:46:56;;;;;;;2.65;1.00;;;;;;;;;;5017763;28;20050;-78
2023/01/03 10:49:24;;;;;;;2.13;0.93;;;;;;;;;;5023412;28;20216;-78
2023/01/03 10:52:09;;;;;;;3.15;1.40;;;;;;;;;;5020401;28;20041;-80
2023/01/03 10:54:50;;;;;;;2.55;1.23;;;;;;;;;;5014843;28;20107;-80
2023/01/03 10:57:35;;;;;;;2.80;1.77;;;;;;;;;;5019632;28;20422;-79
2023/01/03 11:00:20;;;;;;;3.22;1.20;;;;;;;;;;5028694;28;20081;-79
2023/01/03 11:02:46;;;;;;;3.53;1.20;;;;;;;;;;5023252;28;20511;-78
2023/01/03 11:05:18;;;;;;;2.03;1.27;;;;;;;;;;5010292;28;20145;-78
2023/01/03 11:07:49;;;;;;;3.63;1.27;;;;;;;;;;5024596;28;20510;-78
2023/01/03 11:10:17;;;;;;;2.65;1.33;;;;;;;;;;5031903;28;20348;-79
2023/01/03 11:12:45;;;;;;;5.22;1.30;;;;;;;;;;5037662;28;20151;-79
2023/01/03 11:15:15;;;;;;;3.10;1.10;;;;;;;;;;5030279;28;20455;-78
2023/01/03 11:17:55;;;;;;;3.95;1.20;;;;;;;;;;5028898;28;20381;-79
2023/01/03 11:20:30;;;;;;;7.00;1.20;;;;;;;;;;5030024;28;20085;-79
2023/01/03 11:23:01;;;;;;;2.72;0.95;;;;;;;;;;5009866;28;20060;-78
2023/01/03 11:25:36;;;;;;;1.63;1.10;;;;;;;;;;5010274;28;20053;-79
2023/01/03 11:28:03;;;;;;;;;;;;;;;;;;5019485;28;20148;-78
2023/01/03 11:30:31;;;;;;;2.95;1.17;;;;;;;;;;5009888;28;19983;-80
2023/01/03 11:33:16;;;;;;;4.03;1.10;;;;;;;;;;5020479;28;20053;-79
2023/01/03 11:35:54;;;;;;;2.40;0.90;;;;;;;;;;5028394;28;20521;-80
2023/01/03 11:38:45;;;;;;;2.53;1.10;;;;;;;;;;5020716;28;20536;-79
2023/01/03 11:41:30;;;;;;;4.22;1.15;;;;;;;;;;5005834;28;20133;-80
2023/01/03 11:44:02;;;;;;;3.25;0.75;;;;;;;;;;5009065;28;20058;-80
2023/01/03 11:46:35;;;;;;;2.25;0.70;;;;;;;;;;5017733;28;20298;-80
2023/01/03 11:49:01;;;;;;;4.68;1.00;;;;;;;;;;5030053;28;20092;-79
2023/01/03 11:51:27;;;;;;;2.25;1.00;;;;;;;;;;5027704;28;20042;-79
2023/01/03 11:53:54;;;;;;;2.75;1.00;;;;;;;;;;5027042;28;20068;-79
2023/01/03 11:56:26;;;;;;;1.25;0.73;;;;;;;;;;5028732;28;20056;-80
2023/01/03 11:58:59;;;;;;;2.47;1.00;;;;;;;;;;5029504;28;20389;-79
2023/01/03 12:01:47;;;;;;;1.70;0.80;;;;;;;;;;5028208;28;20501;-80
2023/01/03 12:04:20;;;;;;;1.52;0.82;;;;;;;;;;5010569;28;20204;-78
2023/01/03 12:06:54;;;;;;;1.88;0.73;;;;;;;;;;5027400;28;20135;-77
2023/01/03 12:09:43;;;;;;;3.55;1.17;;;;;;;;;;5025943;28;20431;-79
2023/01/03 12:12:21;;;;;;;1.63;0.70;;;;;;;;;;5012975;28;20079;-79
2023/01/03 12:14:53;;;;;;;1.33;0.77;;;;;;;;;;5026541;28;20049;-79
2023/01/03 12:17:23;;;;;;;4.03;1.05;;;;;;;;;;5039892;28;20114;-79
2023/01/03 12:19:51;;;;;;;1.38;0.75;;;;;;;;;;5040963;28;20201;-79
2023/01/03 12:22:21;;;;;;;2.15;1.02;;;;;;;;;;5042540;28;20124;-77
2023/01/03 12:24:47;;;;;;;2.13;1.00;;;;;;;;;;5029957;28;20065;-81
2023/01/03 12:27:18;;;;;;;1.35;0.98;;;;;;;;;;5018420;28;20049;-80
2023/01/03 12:29:48;;;;;;;2.08;1.13;;;;;;;;;;5029109;28;20171;-80
2023/01/03 12:32:15;;;;;;;1.80;0.90;;;;;;;;;;5027763;28;20141;-78
2023/01/03 12:35:11;;;;;;;5.00;1.00;;;;;;;;;;5029413;28;20578;-79
2023/01/03 12:37:39;;;;;;;3.03;1.20;;;;;;;;;;5003724;28;20045;-79
2023/01/03 12:40:07;;;;;;;4.32;1.10;;;;;;;;;;5028032;28;20522;-78
2023/01/03 12:42:36;;;;;;;5.05;1.20;;;;;;;;;;5021292;28;20045;-78
2023/01/03 12:45:17;;;;;;;4.05;1.30;;;;;;;;;;5028044;28;20160;-76
2023/01/03 12:47:47;;;;;;;5.57;1.10;;;;;;;;;;5026197;28;20322;-80
2023/01/03 12:50:23;;;;;;;4.22;0.90;;;;;;;;;;5030835;28;20291;-77
2023/01/03 12:53:04;;;;;;;2.83;1.02;;;;;;;;;;5021306;28;20433;-77
2023/01/03 12:55:49;;;;;;;3.92;1.10;;;;;;;;;;5018136;28;20440;-78
2023/01/03 12:58:35;;;;;;;2.73;1.17;;;;;;;;;;5020712;28;20132;-80
2023/01/03 13:01:10;;;;;;;4.35;0.88;;;;;;;;;;5025907;28;20677;-79
2023/01/03 13:03:36;;;;;;;3.80;0.80;;;;;;;;;;5017908;28;20049;-79
2023/01/03 13:06:06;;;;;;;5.47;1.20;;;;;;;;;;5027430;28;20417;-77
2023/01/03 13:08:33;;;;;;;1.90;0.73;;;;;;;;;;5027344;28;20046;-78
2023/01/03 13:11:02;;;;;;;2.00;0.82;;;;;;;;;;5044290;28;20051;-79
2023/01/03 13:13:29;;;;;;;4.97;0.95;;;;;;;;;;5035322;28;20055;-79
2023/01/03 13:15:55;;;;;;;5.35;1.00;;;;;;;;;;5026877;28;20140;-79
2023/01/03 13:18:22;;;;;;;3.58;0.90;;;;;;;;;;5031018;28;20198;-79
2023/01/03 13:20:52;;;;;;;2.95;1.10;;;;;;;;;;5023189;28;20053;-79
2023/01/03 13:23:27;;;;;;;4.35;1.02;;;;;;;;;;5018786;28;20474;-79
2023/01/03 13:26:06;;;;;;;5.50;1.40;;;;;;;;;;5026980;28;20089;-78
2023/01/03 13:28:36;;;;;;;5.57;1.30;;;;;;;;;;5024598;28;20046;-79
2023/01/03 13:31:17;;;;;;;2.65;1.20;;;;;;;;;;5028703;28;20128;-79
2023/01/03 13:33:55;;;;;;;3.78;1.30;;;;;;;;;;5021415;28;20049;-80
2023/01/03 13:36:22;;;;;;;2.83;0.95;;;;;;;;;;5027630;28;20189;-79
2023/01/03 13:38:48;;;;;;;5.68;1.42;;;;;;;;;;5019651;28;20081;-79
2023/01/03 13:41:34;;;;;;;3.15;1.00;;;;;;;;;;5026641;28;20552;-79
2023/01/03 13:44:08;;;;;;;3.28;1.00;;;;;;;;;;5027698;28;20554;-79
2023/01/03 13:46:38;;;;;;;3.42;1.00;;;;;;;;;;5026203;28;20199;-79
2023/01/03 13:49:06;;;;;;;1.75;0.90;;;;;;;;;;5027309;28;20049;-80
2023/01/03 13:51:38;;;;;;;1.90;1.25;;;;;;;;;;5027121;28;20041;-79
2023/01/03 13:54:11;;;;;;;2.10;1.02;;;;;;;;;;5021352;28;20063;-79
2023/01/03 13:56:43;;;;;;;2.33;1.08;;;;;;;;;;5026745;28;20056;-80
2023/01/03 13:59:13;;;;;;;2.25;1.08;;;;;;;;;;5027637;28;20088;-79
2023/01/03 14:01:39;;;;;;;3.78;1.15;;;;;;;;;;5024783;28;20136;-77
2023/01/03 14:04:12;;;;;;;3.20;0.98;;;;;;;;;;5021636;28;20049;-79
2023/01/03 14:06:57;;;;;;;1.95;0.90;;;;;;;;;;5029708;28;20080;-80
2023/01/03 14:09:23;;;;;;;4.37;0.97;;;;;;;;;;5031504;28;20152;-79
2023/01/03 14:12:08;;;;;;;3.35;0.90;;;;;;;;;;5050370;28;20294;-79
2023/01/03 14:14:36;;;;;;;3.03;1.27;;;;;;;;;;5029290;28;20148;-80
2023/01/03 14:17:03;;;;;;;3.38;1.02;;;;;;;;;;5030115;28;20057;-78
2023/01/03 14:19:33;;;;;;;3.33;1.15;;;;;;;;;;5027296;28;20129;-78
2023/01/03 14:22:22;;;;;;;4.88;1.10;;;;;;;;;;5012346;28;20375;-79
2023/01/03 14:24:57;;;;;;;5.47;1.10;;;;;;;;;;5029693;28;20133;-79
2023/01/03 14:27:51;;;;;;;2.60;0.98;;;;;;;;;;5032732;28;20053;-78
2023/01/03 14:30:22;;;;;;;2.42;0.80;;;;;;;;;;5028933;28;20063;-78
2023/01/03 14:32:49;;;;;;;3.08;1.08;;;;;;;;;;5040600;28;20049;-76
2023/01/03 14:35:30;;;;;;;2.20;1.05;;;;;;;;;;5040243;28;20056;-76
2023/01/03 14:37:57;;;;;;;4.50;1.20;;;;;;;;;;5025765;28;20502;-77
2023/01/03 14:40:31;;;;;;;3.25;1.02;;;;;;;;;;5029188;28;20052;-77
2023/01/03 14:43:02;;;;;;;6.05;1.00;;;;;;;;;;5027700;28;20139;-79
2023/01/03 14:45:28;;;;;;;3.42;1.05;;;;;;;;;;5028515;28;20498;-78
2023/01/03 14:47:54;;;;;;;3.85;0.98;;;;;;;;;;5028665;28;20148;-77
2023/01/03 14:50:24;;;;;;;3.25;1.10;;;;;;;;;;5029579;28;20049;-79
2023/01/03 14:52:52;;;;;;;5.55;1.55;;;;;;;;;;5011188;28;20132;-78
2023/01/03 14:55:20;;;;;;;8.90;2.97;;;;;;;;;;5029797;28;20045;-79
2023/01/03 14:57:47;;;;;;;4.72;1.67;;;;;;;;;;5032989;28;20053;-79
2023/01/03 15:00:28;;;;;;;3.97;1.25;;;;;;;;;;5025153;28;20558;-78
2023/01/03 15:02:58;;;;;;;3.10;1.08;;;;;;;;;;5027149;28;20506;-80
2023/01/03 15:05:25;;;;;;;3.95;1.00;;;;;;;;;;5032444;28;20218;-79
2023/01/03 15:07:51;;;;;;;3.33;1.10;;;;;;;;;;5029592;28;20065;-78
2023/01/03 15:10:41;;;;;;;4.63;1.10;;;;;;;;;;5042441;28;20053;-79
2023/01/03 15:13:16;;;;;;;3.92;1.20;;;;;;;;;;5017216;28;20121;-76
2023/01/03 15:15:43;;;;;;;2.53;1.00;;;;;;;;;;5031179;28;20137;-78
2023/01/03 15:18:10;;;;;;;2.67;1.08;;;;;;;;;;5027086;28;20561;-79
2023/01/03 15:20:44;;;;;;;1.58;0.80;;;;;;;;;;5026055;28;20140;-79
2023/01/03 15:23:25;;;;;;;7.10;1.10;;;;;;;;;;5009251;28;20140;-80
2023/01/03 15:25:52;;;;;;;2.05;1.38;;;;;;;;;;5025960;28;20314;-79
2023/01/03 15:28:31;;;;;;;2.92;1.00;;;;;;;;;;5012442;28;20111;-80
2023/01/03 15:31:10;;;;;;;4.63;1.05;;;;;;;;;;5025895;28;20056;-79
2023/01/03 15:33:37;;;;;;;2.38;0.98;;;;;;;;;;5025313;28;20071;-79
2023/01/03 15:36:13;;;;;;;1.77;0.90;;;;;;;;;;5027221;28;20301;-78
2023/01/03 15:38:46;;;;;;;2.83;1.15;;;;;;;;;;5021892;28;20041;-78
2023/01/03 15:41:14;;;;;;;2.67;1.00;;;;;;;;;;5023333;28;20077;-77
2023/01/03 15:43:41;;;;;;;3.38;1.10;;;;;;;;;;5023992;28;20494;-78
2023/01/03 15:46:13;;;;;;;2.55;1.00;;;;;;;;;;5013258;28;20052;-78
2023/01/03 15:48:41;;;;;;;2.13;1.00;;;;;;;;;;5013777;28;20061;-78
2023/01/03 15:51:07;;;;;;;1.88;0.98;;;;;;;;;;5036275;28;20470;-77
2023/01/03 15:53:35;;;;;;;2.95;1.10;;;;;;;;;;5006452;28;20667;-78
2023/01/03 15:56:15;;;;;;;4.63;1.70;;;;;;;;;;5026640;28;20053;-77
2023/01/03 15:58:42;;;;;;;3.40;1.30;;;;;;;;;;5014692;28;20049;-77
2023/01/03 16:01:08;;;;;;;2.83;1.20;;;;;;;;;;5009413;28;20119;-77
2023/01/03 16:03:35;;;;;;;1.63;1.10;;;;;;;;;;5026574;28;20299;-77
2023/01/03 16:06:02;;;;;;;3.63;1.40;;;;;;;;;;5006875;28;20077;-78
2023/01/03 16:08:33;;;;;;;6.32;1.48;;;;;;;;;;5010617;28;20374;-79
2023/01/03 16:11:01;;;;;;;6.80;2.03;;;;;;;;;;5035027;28;20072;-79
2023/01/03 16:13:29;;;;;;;6.03;1.98;;;;;;;;;;5025066;28;20230;-78